sensor_id;sensor_type;location;lat;lon;timestamp;pressure;altitude;pressure_sealevel;temperature;humidity
28797;BME280;24974;54.444;18.560;2023-02-17T10:59:24;100576.75;;;10.81;63.53
28797;BME280;24974;54.444;18.560;2023-02-17T11:05:00;100566.63;;;10.90;62.73
28797;BME280;24974;54.444;18.560;2023-02-17T11:07:34;100553.06;;;10.93;63.13
28797;BME280;24974;54.444;18.560;2023-02-17T11:10:27;100550.41;;;10.57;63.91
28797;BME280;24974;54.444;18.560;2023-02-17T11:12:58;100552.31;;;11.33;61.79
28797;BME280;24974;54.444;18.560;2023-02-17T11:15:36;100544.94;;;10.88;63.27
28797;BME280;24974;54.444;18.560;2023-02-17T11:18:21;100531.59;;;10.73;63.97
28797;BME280;24974;54.444;18.560;2023-02-17T11:21:00;100534.56;;;10.54;64.25
28797;BME280;24974;54.444;18.560;2023-02-17T11:23:31;100517.41;;;10.80;63.57
28797;BME280;24974;54.444;18.560;2023-02-17T11:26:19;100505.50;;;10.84;63.53
28797;BME280;24974;54.444;18.560;2023-02-17T11:28:52;100496.84;;;11.00;63.05
28797;BME280;24974;54.444;18.560;2023-02-17T11:31:26;100483.56;;;10.71;64.35
28797;BME280;24974;54.444;18.560;2023-02-17T11:33:57;100473.31;;;10.85;63.74
28797;BME280;24974;54.444;18.560;2023-02-17T11:36:30;100478.16;;;10.34;65.68
28797;BME280;24974;54.444;18.560;2023-02-17T11:39:16;100481.66;;;10.26;65.67
28797;BME280;24974;54.444;18.560;2023-02-17T11:41:48;100468.53;;;10.99;63.48
28797;BME280;24974;54.444;18.560;2023-02-17T11:44:26;100455.81;;;10.50;65.67
28797;BME280;24974;54.444;18.560;2023-02-17T11:58:59;100418.09;;;11.21;64.00
28797;BME280;24974;54.444;18.560;2023-02-17T12:04:51;100418.31;;;10.45;66.12
28797;BME280;24974;54.444;18.560;2023-02-17T12:07:26;100399.19;;;10.71;66.22
28797;BME280;24974;54.444;18.560;2023-02-17T12:10:04;100394.28;;;10.99;65.15
28797;BME280;24974;54.444;18.560;2023-02-17T12:13:19;100396.75;;;10.70;66.15
28797;BME280;24974;54.444;18.560;2023-02-17T12:24:31;100366.88;;;10.37;67.80
28797;BME280;24974;54.444;18.560;2023-02-17T12:30:42;100362.31;;;10.72;67.09
28797;BME280;24974;54.444;18.560;2023-02-17T12:36:32;100341.69;;;10.83;66.64
28797;BME280;24974;54.444;18.560;2023-02-17T12:39:21;100329.88;;;10.12;68.97
28797;BME280;24974;54.444;18.560;2023-02-17T12:44:44;100314.63;;;10.68;67.36
28797;BME280;24974;54.444;18.560;2023-02-17T12:47:35;100315.34;;;10.91;66.89
28797;BME280;24974;54.444;18.560;2023-02-17T12:52:45;100304.34;;;11.00;66.83
28797;BME280;24974;54.444;18.560;2023-02-17T12:55:24;100289.56;;;10.70;67.96
28797;BME280;24974;54.444;18.560;2023-02-17T12:58:00;100289.78;;;10.42;68.73
28797;BME280;24974;54.444;18.560;2023-02-17T13:00:37;100275.97;;;10.73;67.96
28797;BME280;24974;54.444;18.560;2023-02-17T13:03:10;100273.31;;;10.42;68.19
28797;BME280;24974;54.444;18.560;2023-02-17T13:05:47;100266.22;;;10.41;69.03
28797;BME280;24974;54.444;18.560;2023-02-17T13:08:35;100260.28;;;10.17;69.80
28797;BME280;24974;54.444;18.560;2023-02-17T13:11:23;100239.25;;;10.43;68.48
28797;BME280;24974;54.444;18.560;2023-02-17T13:13:55;100222.81;;;11.21;66.43
28797;BME280;24974;54.444;18.560;2023-02-17T13:16:26;100213.75;;;10.12;69.77
28797;BME280;24974;54.444;18.560;2023-02-17T13:19:06;100195.31;;;11.21;66.99
28797;BME280;24974;54.444;18.560;2023-02-17T13:21:51;100192.06;;;11.19;67.17
28797;BME280;24974;54.444;18.560;2023-02-17T13:24:38;100190.31;;;10.80;67.91
28797;BME280;24974;54.444;18.560;2023-02-17T13:27:33;100189.47;;;10.45;69.29
28797;BME280;24974;54.444;18.560;2023-02-17T13:32:58;100167.63;;;10.31;69.19
28797;BME280;24974;54.444;18.560;2023-02-17T13:35:33;100156.97;;;10.38;69.36
28797;BME280;24974;54.444;18.560;2023-02-17T13:38:04;100128.22;;;10.87;68.15
28797;BME280;24974;54.444;18.560;2023-02-17T13:40:37;100117.41;;;10.91;67.54
28797;BME280;24974;54.444;18.560;2023-02-17T13:43:17;100106.13;;;11.31;66.23
28797;BME280;24974;54.444;18.560;2023-02-17T13:46:02;100103.34;;;11.48;65.95
28797;BME280;24974;54.444;18.560;2023-02-17T13:48:34;100095.47;;;11.20;66.98
28797;BME280;24974;54.444;18.560;2023-02-17T13:51:07;100096.78;;;11.61;65.86
28797;BME280;24974;54.444;18.560;2023-02-17T13:53:51;100085.31;;;12.18;64.22
28797;BME280;24974;54.444;18.560;2023-02-17T13:56:26;100076.69;;;11.23;67.11
28797;BME280;24974;54.444;18.560;2023-02-17T13:59:10;100073.28;;;11.72;65.39
28797;BME280;24974;54.444;18.560;2023-02-17T14:01:47;100057.66;;;11.56;65.82
28797;BME280;24974;54.444;18.560;2023-02-17T14:04:29;100054.09;;;11.46;66.94
28797;BME280;24974;54.444;18.560;2023-02-17T14:07:03;100068.78;;;11.21;66.74
28797;BME280;24974;54.444;18.560;2023-02-17T14:09:34;100067.53;;;11.10;67.90
28797;BME280;24974;54.444;18.560;2023-02-17T14:12:21;100074.72;;;10.50;69.25
28797;BME280;24974;54.444;18.560;2023-02-17T14:14:52;100060.59;;;10.95;67.73
28797;BME280;24974;54.444;18.560;2023-02-17T14:17:29;100063.84;;;11.44;66.84
28797;BME280;24974;54.444;18.560;2023-02-17T14:20:01;100058.34;;;10.97;68.25
28797;BME280;24974;54.444;18.560;2023-02-17T14:22:33;100043.34;;;10.77;69.25
28797;BME280;24974;54.444;18.560;2023-02-17T14:25:10;100031.50;;;11.41;67.45
28797;BME280;24974;54.444;18.560;2023-02-17T14:27:47;100032.28;;;11.03;68.24
28797;BME280;24974;54.444;18.560;2023-02-17T14:30:34;100021.41;;;11.07;68.31
28797;BME280;24974;54.444;18.560;2023-02-17T14:38:28;99973.34;;;11.51;66.49
28797;BME280;24974;54.444;18.560;2023-02-17T14:41:05;99972.59;;;10.48;69.40
28797;BME280;24974;54.444;18.560;2023-02-17T14:43:36;99956.94;;;10.40;70.34
28797;BME280;24974;54.444;18.560;2023-02-17T14:46:07;99943.56;;;10.13;71.37
28797;BME280;24974;54.444;18.560;2023-02-17T14:48:38;99935.59;;;10.54;69.79
28797;BME280;24974;54.444;18.560;2023-02-17T14:51:13;99917.97;;;10.55;69.94
28797;BME280;24974;54.444;18.560;2023-02-17T14:53:45;99908.16;;;11.13;68.68
28797;BME280;24974;54.444;18.560;2023-02-17T14:56:42;99911.34;;;10.95;68.67
28797;BME280;24974;54.444;18.560;2023-02-17T14:59:11;99886.94;;;10.93;69.35
28797;BME280;24974;54.444;18.560;2023-02-17T15:01:42;99889.66;;;10.63;69.81
28797;BME280;24974;54.444;18.560;2023-02-17T15:04:12;99879.56;;;10.38;71.05
28797;BME280;24974;54.444;18.560;2023-02-17T15:06:46;99873.91;;;11.11;68.57
28797;BME280;24974;54.444;18.560;2023-02-17T15:09:27;99872.69;;;11.00;68.85
28797;BME280;24974;54.444;18.560;2023-02-17T15:11:59;99856.91;;;11.80;66.36
28797;BME280;24974;54.444;18.560;2023-02-17T15:14:30;99868.81;;;11.21;68.20
28797;BME280;24974;54.444;18.560;2023-02-17T15:17:01;99853.47;;;11.41;67.56
28797;BME280;24974;54.444;18.560;2023-02-17T15:19:31;99855.81;;;10.33;71.13
28797;BME280;24974;54.444;18.560;2023-02-17T15:22:03;99839.41;;;11.13;68.46
28797;BME280;24974;54.444;18.560;2023-02-17T15:24:35;99835.63;;;10.76;70.38
28797;BME280;24974;54.444;18.560;2023-02-17T15:27:11;99837.78;;;11.42;68.18
28797;BME280;24974;54.444;18.560;2023-02-17T15:29:43;99825.34;;;11.15;68.64
28797;BME280;24974;54.444;18.560;2023-02-17T15:32:15;99811.31;;;11.49;67.85
28797;BME280;24974;54.444;18.560;2023-02-17T15:34:49;99807.16;;;11.02;69.28
28797;BME280;24974;54.444;18.560;2023-02-17T15:37:20;99800.19;;;11.04;69.64
28797;BME280;24974;54.444;18.560;2023-02-17T15:39:51;99777.06;;;11.26;68.96
28797;BME280;24974;54.444;18.560;2023-02-17T15:42:22;99781.06;;;10.57;71.37
28797;BME280;24974;54.444;18.560;2023-02-17T15:44:54;99767.50;;;10.82;70.45
28797;BME280;24974;54.444;18.560;2023-02-17T15:47:25;99760.59;;;10.76;70.56
28797;BME280;24974;54.444;18.560;2023-02-17T15:49:56;99744.03;;;11.05;70.02
28797;BME280;24974;54.444;18.560;2023-02-17T15:52:27;99743.88;;;11.76;67.64
28797;BME280;24974;54.444;18.560;2023-02-17T15:54:58;99720.09;;;11.06;69.91
28797;BME280;24974;54.444;18.560;2023-02-17T15:57:29;99726.16;;;11.53;68.52
28797;BME280;24974;54.444;18.560;2023-02-17T16:00:00;99712.34;;;11.08;69.88
28797;BME280;24974;54.444;18.560;2023-02-17T16:02:31;99703.53;;;11.14;69.57
28797;BME280;24974;54.444;18.560;2023-02-17T16:05:02;99699.50;;;11.12;69.93
28797;BME280;24974;54.444;18.560;2023-02-17T16:07:33;99696.50;;;11.38;69.02
28797;BME280;24974;54.444;18.560;2023-02-17T16:10:05;99695.75;;;11.49;68.63
28797;BME280;24974;54.444;18.560;2023-02-17T16:12:37;99680.72;;;11.80;67.68
28797;BME280;24974;54.444;18.560;2023-02-17T16:15:19;99681.16;;;11.37;69.28
28797;BME280;24974;54.444;18.560;2023-02-17T16:17:50;99709.06;;;11.47;68.99
28797;BME280;24974;54.444;18.560;2023-02-17T16:20:27;99652.81;;;10.91;71.35
28797;BME280;24974;54.444;18.560;2023-02-17T16:22:59;99670.41;;;11.44;69.67
28797;BME280;24974;54.444;18.560;2023-02-17T16:25:30;99667.03;;;11.26;70.47
28797;BME280;24974;54.444;18.560;2023-02-17T16:28:01;99663.34;;;11.67;69.00
28797;BME280;24974;54.444;18.560;2023-02-17T16:30:33;99658.81;;;11.84;68.64
28797;BME280;24974;54.444;18.560;2023-02-17T16:33:04;99661.91;;;12.19;67.56
28797;BME280;24974;54.444;18.560;2023-02-17T16:35:35;99664.09;;;11.89;69.04
28797;BME280;24974;54.444;18.560;2023-02-17T16:38:11;99658.50;;;10.86;72.30
28797;BME280;24974;54.444;18.560;2023-02-17T16:40:47;99653.19;;;12.17;68.31
28797;BME280;24974;54.444;18.560;2023-02-17T16:43:22;99660.19;;;12.26;67.68
28797;BME280;24974;54.444;18.560;2023-02-17T16:45:56;99660.19;;;11.90;69.52
28797;BME280;24974;54.444;18.560;2023-02-17T16:48:29;99665.94;;;12.09;68.64
28797;BME280;24974;54.444;18.560;2023-02-17T16:51:00;99662.97;;;11.11;72.05
28797;BME280;24974;54.444;18.560;2023-02-17T16:53:31;99658.16;;;11.54;71.27
28797;BME280;24974;54.444;18.560;2023-02-17T16:56:13;99639.28;;;11.76;70.34
28797;BME280;24974;54.444;18.560;2023-02-17T16:58:45;99643.63;;;11.77;70.36
28797;BME280;24974;54.444;18.560;2023-02-17T17:01:16;99654.69;;;11.90;70.04
28797;BME280;24974;54.444;18.560;2023-02-17T17:03:47;99643.66;;;12.39;68.29
28797;BME280;24974;54.444;18.560;2023-02-17T17:06:26;99640.84;;;12.63;67.48
28797;BME280;24974;54.444;18.560;2023-02-17T17:08:58;99627.34;;;12.33;67.93
28797;BME280;24974;54.444;18.560;2023-02-17T17:11:30;99627.13;;;12.39;67.62
28797;BME280;24974;54.444;18.560;2023-02-17T17:14:00;99624.16;;;12.72;67.29
28797;BME280;24974;54.444;18.560;2023-02-17T17:16:32;99622.97;;;11.59;71.42
28797;BME280;24974;54.444;18.560;2023-02-17T17:19:04;99621.47;;;12.47;68.25
28797;BME280;24974;54.444;18.560;2023-02-17T17:21:35;99614.56;;;11.89;70.25
28797;BME280;24974;54.444;18.560;2023-02-17T17:24:05;99604.91;;;12.87;67.14
28797;BME280;24974;54.444;18.560;2023-02-17T17:26:39;99620.09;;;12.81;67.49
28797;BME280;24974;54.444;18.560;2023-02-17T17:29:13;99632.88;;;12.74;67.42
28797;BME280;24974;54.444;18.560;2023-02-17T17:31:45;99618.06;;;13.34;65.98
28797;BME280;24974;54.444;18.560;2023-02-17T17:34:16;99640.25;;;12.98;67.16
28797;BME280;24974;54.444;18.560;2023-02-17T17:36:47;99642.78;;;13.03;67.10
28797;BME280;24974;54.444;18.560;2023-02-17T17:39:20;99649.34;;;12.70;68.22
28797;BME280;24974;54.444;18.560;2023-02-17T17:41:51;99650.06;;;12.55;68.58
28797;BME280;24974;54.444;18.560;2023-02-17T17:44:22;99638.22;;;12.95;67.05
28797;BME280;24974;54.444;18.560;2023-02-17T17:46:53;99648.22;;;12.47;67.34
28797;BME280;24974;54.444;18.560;2023-02-17T17:49:24;99632.69;;;13.66;63.51
28797;BME280;24974;54.444;18.560;2023-02-17T17:51:55;99634.63;;;12.66;65.07
28797;BME280;24974;54.444;18.560;2023-02-17T17:54:25;99618.94;;;12.54;65.15
28797;BME280;24974;54.444;18.560;2023-02-17T17:56:56;99609.06;;;12.81;64.17
28797;BME280;24974;54.444;18.560;2023-02-17T17:59:27;99607.56;;;12.56;63.35
28797;BME280;24974;54.444;18.560;2023-02-17T18:01:58;99605.41;;;13.05;61.96
28797;BME280;24974;54.444;18.560;2023-02-17T18:04:28;99588.97;;;12.53;63.22
28797;BME280;24974;54.444;18.560;2023-02-17T18:07:00;99580.84;;;13.28;60.46
28797;BME280;24974;54.444;18.560;2023-02-17T18:09:35;99561.44;;;12.97;60.61
28797;BME280;24974;54.444;18.560;2023-02-17T18:12:10;99566.44;;;12.63;61.50
28797;BME280;24974;54.444;18.560;2023-02-17T18:14:42;99573.13;;;12.50;61.29
28797;BME280;24974;54.444;18.560;2023-02-17T18:17:14;99589.94;;;12.32;60.90
28797;BME280;24974;54.444;18.560;2023-02-17T18:19:47;99564.09;;;12.37;60.15
28797;BME280;24974;54.444;18.560;2023-02-17T18:22:18;99570.69;;;12.60;59.85
28797;BME280;24974;54.444;18.560;2023-02-17T18:24:49;99584.38;;;11.80;61.17
28797;BME280;24974;54.444;18.560;2023-02-17T18:27:20;99579.41;;;12.10;59.64
28797;BME280;24974;54.444;18.560;2023-02-17T18:29:55;99554.53;;;12.07;59.01
28797;BME280;24974;54.444;18.560;2023-02-17T18:32:26;99573.13;;;11.97;58.88
28797;BME280;24974;54.444;18.560;2023-02-17T18:34:56;99579.63;;;12.17;58.13
28797;BME280;24974;54.444;18.560;2023-02-17T18:37:28;99568.88;;;12.12;57.53
28797;BME280;24974;54.444;18.560;2023-02-17T18:40:00;99547.28;;;11.16;57.98
28797;BME280;24974;54.444;18.560;2023-02-17T18:42:31;99559.56;;;11.68;57.07
28797;BME280;24974;54.444;18.560;2023-02-17T18:45:03;99589.03;;;11.67;56.65
28797;BME280;24974;54.444;18.560;2023-02-17T18:47:34;99577.56;;;11.77;57.02
28797;BME280;24974;54.444;18.560;2023-02-17T18:50:06;99569.53;;;11.60;56.59
28797;BME280;24974;54.444;18.560;2023-02-17T18:52:38;99568.28;;;11.70;56.00
28797;BME280;24974;54.444;18.560;2023-02-17T18:55:09;99556.47;;;11.57;56.98
28797;BME280;24974;54.444;18.560;2023-02-17T18:57:40;99547.06;;;11.58;56.71
28797;BME280;24974;54.444;18.560;2023-02-17T19:00:13;99555.44;;;11.62;55.95
28797;BME280;24974;54.444;18.560;2023-02-17T19:02:44;99556.81;;;11.68;55.78
28797;BME280;24974;54.444;18.560;2023-02-17T19:05:15;99567.19;;;11.95;55.41
28797;BME280;24974;54.444;18.560;2023-02-17T19:07:47;99566.88;;;11.27;55.99
28797;BME280;24974;54.444;18.560;2023-02-17T19:10:17;99548.97;;;11.21;55.64
28797;BME280;24974;54.444;18.560;2023-02-17T19:12:48;99542.59;;;11.41;55.38
28797;BME280;24974;54.444;18.560;2023-02-17T19:15:19;99550.47;;;11.18;55.09
28797;BME280;24974;54.444;18.560;2023-02-17T19:17:57;99525.94;;;11.13;55.54
28797;BME280;24974;54.444;18.560;2023-02-17T19:20:28;99552.13;;;11.68;54.47
28797;BME280;24974;54.444;18.560;2023-02-17T19:23:00;99540.16;;;11.15;55.87
28797;BME280;24974;54.444;18.560;2023-02-17T19:25:31;99524.13;;;11.54;55.13
28797;BME280;24974;54.444;18.560;2023-02-17T19:28:02;99546.03;;;11.26;56.28
28797;BME280;24974;54.444;18.560;2023-02-17T19:30:33;99563.38;;;11.63;55.46
28797;BME280;24974;54.444;18.560;2023-02-17T19:33:04;99548.63;;;11.23;55.46
28797;BME280;24974;54.444;18.560;2023-02-17T19:35:42;99538.47;;;10.90;55.28
28797;BME280;24974;54.444;18.560;2023-02-17T19:38:13;99521.13;;;11.10;54.99
28797;BME280;24974;54.444;18.560;2023-02-17T19:40:44;99537.53;;;10.74;54.93
28797;BME280;24974;54.444;18.560;2023-02-17T19:43:15;99535.16;;;10.84;54.20
28797;BME280;24974;54.444;18.560;2023-02-17T19:45:45;99526.13;;;10.96;53.64
28797;BME280;24974;54.444;18.560;2023-02-17T19:48:16;99508.78;;;11.16;53.53
28797;BME280;24974;54.444;18.560;2023-02-17T19:50:47;99523.38;;;10.84;53.11
28797;BME280;24974;54.444;18.560;2023-02-17T19:53:18;99550.44;;;11.06;53.04
28797;BME280;24974;54.444;18.560;2023-02-17T19:55:48;99516.22;;;10.38;54.20
28797;BME280;24974;54.444;18.560;2023-02-17T19:58:19;99513.81;;;10.69;53.47
28797;BME280;24974;54.444;18.560;2023-02-17T20:00:50;99509.34;;;11.10;52.04
28797;BME280;24974;54.444;18.560;2023-02-17T20:03:21;99500.00;;;10.90;52.14
28797;BME280;24974;54.444;18.560;2023-02-17T20:05:51;99522.44;;;10.47;52.34
28797;BME280;24974;54.444;18.560;2023-02-17T20:08:22;99538.38;;;10.86;51.53
28797;BME280;24974;54.444;18.560;2023-02-17T20:10:53;99517.28;;;10.90;51.21
28797;BME280;24974;54.444;18.560;2023-02-17T20:13:24;99493.19;;;11.08;50.56
28797;BME280;24974;54.444;18.560;2023-02-17T20:16:02;99515.00;;;10.47;51.94
28797;BME280;24974;54.444;18.560;2023-02-17T20:18:38;99509.59;;;10.72;51.13
28797;BME280;24974;54.444;18.560;2023-02-17T20:21:12;99498.22;;;11.67;50.28
28797;BME280;24974;54.444;18.560;2023-02-17T20:23:44;99492.34;;;10.96;51.29
28797;BME280;24974;54.444;18.560;2023-02-17T20:26:18;99506.13;;;11.44;50.04
28797;BME280;24974;54.444;18.560;2023-02-17T20:28:51;99493.78;;;10.35;51.38
28797;BME280;24974;54.444;18.560;2023-02-17T20:31:23;99488.94;;;10.65;51.63
28797;BME280;24974;54.444;18.560;2023-02-17T20:33:54;99473.59;;;11.10;51.07
28797;BME280;24974;54.444;18.560;2023-02-17T20:36:25;99493.97;;;10.51;52.08
28797;BME280;24974;54.444;18.560;2023-02-17T20:38:56;99490.91;;;10.65;52.06
28797;BME280;24974;54.444;18.560;2023-02-17T20:41:27;99501.06;;;10.52;51.87
28797;BME280;24974;54.444;18.560;2023-02-17T20:43:57;99482.00;;;10.35;52.44
28797;BME280;24974;54.444;18.560;2023-02-17T20:46:31;99505.53;;;10.57;51.36
28797;BME280;24974;54.444;18.560;2023-02-17T20:49:02;99493.75;;;11.14;50.69
28797;BME280;24974;54.444;18.560;2023-02-17T20:51:33;99477.91;;;10.99;50.18
28797;BME280;24974;54.444;18.560;2023-02-17T20:54:04;99500.03;;;9.94;52.39
28797;BME280;24974;54.444;18.560;2023-02-17T20:56:39;99481.13;;;11.13;50.20
28797;BME280;24974;54.444;18.560;2023-02-17T20:59:12;99476.75;;;10.87;50.75
28797;BME280;24974;54.444;18.560;2023-02-17T21:01:43;99480.31;;;10.43;51.99
28797;BME280;24974;54.444;18.560;2023-02-17T21:04:14;99486.94;;;10.87;51.16
28797;BME280;24974;54.444;18.560;2023-02-17T21:06:45;99472.09;;;11.00;50.93
28797;BME280;24974;54.444;18.560;2023-02-17T21:09:17;99473.69;;;10.56;50.62
28797;BME280;24974;54.444;18.560;2023-02-17T21:11:48;99525.00;;;10.97;49.64
28797;BME280;24974;54.444;18.560;2023-02-17T21:14:19;99468.81;;;10.61;50.87
28797;BME280;24974;54.444;18.560;2023-02-17T21:16:50;99489.38;;;10.55;51.08
28797;BME280;24974;54.444;18.560;2023-02-17T21:19:21;99464.97;;;10.21;52.02
28797;BME280;24974;54.444;18.560;2023-02-17T21:21:52;99507.09;;;10.79;50.46
28797;BME280;24974;54.444;18.560;2023-02-17T21:24:23;99461.09;;;10.55;51.02
28797;BME280;24974;54.444;18.560;2023-02-17T21:26:54;99467.16;;;10.48;51.36
28797;BME280;24974;54.444;18.560;2023-02-17T21:29:25;99478.66;;;10.29;52.22
28797;BME280;24974;54.444;18.560;2023-02-17T21:31:56;99483.09;;;10.55;51.45
28797;BME280;24974;54.444;18.560;2023-02-17T21:34:27;99473.59;;;10.64;52.39
28797;BME280;24974;54.444;18.560;2023-02-17T21:36:57;99493.28;;;9.92;53.49
28797;BME280;24974;54.444;18.560;2023-02-17T21:39:28;99472.38;;;10.74;52.06
28797;BME280;24974;54.444;18.560;2023-02-17T21:41:59;99491.56;;;10.29;52.34
28797;BME280;24974;54.444;18.560;2023-02-17T21:44:30;99444.81;;;10.50;52.74
28797;BME280;24974;54.444;18.560;2023-02-17T21:47:19;99447.28;;;10.30;53.16
28797;BME280;24974;54.444;18.560;2023-02-17T21:49:52;99459.13;;;10.01;53.30
28797;BME280;24974;54.444;18.560;2023-02-17T21:52:23;99481.50;;;10.12;54.30
28797;BME280;24974;54.444;18.560;2023-02-17T21:54:54;99460.50;;;9.95;54.26
28797;BME280;24974;54.444;18.560;2023-02-17T21:57:25;99475.81;;;9.96;53.53
28797;BME280;24974;54.444;18.560;2023-02-17T21:59:56;99456.13;;;10.15;53.93
28797;BME280;24974;54.444;18.560;2023-02-17T22:02:27;99437.19;;;10.22;52.95
28797;BME280;24974;54.444;18.560;2023-02-17T22:04:57;99464.56;;;10.31;52.75
28797;BME280;24974;54.444;18.560;2023-02-17T22:07:28;99421.28;;;9.95;53.44
28797;BME280;24974;54.444;18.560;2023-02-17T22:10:00;99428.56;;;10.12;52.78
28797;BME280;24974;54.444;18.560;2023-02-17T22:12:30;99484.94;;;9.88;52.78
28797;BME280;24974;54.444;18.560;2023-02-17T22:15:03;99457.69;;;10.25;52.18
28797;BME280;24974;54.444;18.560;2023-02-17T22:17:35;99432.81;;;10.21;52.39
28797;BME280;24974;54.444;18.560;2023-02-17T22:20:07;99400.19;;;10.41;52.77
28797;BME280;24974;54.444;18.560;2023-02-17T22:22:38;99393.13;;;10.19;53.27
28797;BME280;24974;54.444;18.560;2023-02-17T22:25:09;99396.28;;;10.42;52.50
28797;BME280;24974;54.444;18.560;2023-02-17T22:27:39;99413.88;;;10.07;54.26
28797;BME280;24974;54.444;18.560;2023-02-17T22:30:13;99405.19;;;9.43;55.67
28797;BME280;24974;54.444;18.560;2023-02-17T22:32:45;99418.78;;;9.60;55.53
28797;BME280;24974;54.444;18.560;2023-02-17T22:35:17;99427.81;;;9.40;56.33
28797;BME280;24974;54.444;18.560;2023-02-17T22:37:50;99429.28;;;9.58;56.76
28797;BME280;24974;54.444;18.560;2023-02-17T22:40:21;99419.59;;;9.10;58.21
28797;BME280;24974;54.444;18.560;2023-02-17T22:42:52;99414.63;;;9.54;57.22
28797;BME280;24974;54.444;18.560;2023-02-17T22:45:22;99392.47;;;10.01;61.28
28797;BME280;24974;54.444;18.560;2023-02-17T22:47:53;99455.13;;;8.89;60.10
28797;BME280;24974;54.444;18.560;2023-02-17T22:50:24;99413.72;;;8.91;61.04
28797;BME280;24974;54.444;18.560;2023-02-17T22:52:55;99407.69;;;8.68;61.80
28797;BME280;24974;54.444;18.560;2023-02-17T22:55:26;99419.19;;;8.44;61.91
28797;BME280;24974;54.444;18.560;2023-02-17T22:57:57;99412.97;;;9.11;60.93
28797;BME280;24974;54.444;18.560;2023-02-17T23:00:28;99436.75;;;8.90;61.01
28797;BME280;24974;54.444;18.560;2023-02-17T23:02:58;99438.97;;;8.96;61.21
28797;BME280;24974;54.444;18.560;2023-02-17T23:05:29;99412.66;;;8.75;62.18
28797;BME280;24974;54.444;18.560;2023-02-17T23:08:00;99412.72;;;8.49;64.03
28797;BME280;24974;54.444;18.560;2023-02-17T23:10:31;99429.63;;;8.97;63.92
28797;BME280;24974;54.444;18.560;2023-02-17T23:13:02;99449.34;;;9.20;62.75
28797;BME280;24974;54.444;18.560;2023-02-17T23:15:33;99457.34;;;8.49;62.33
28797;BME280;24974;54.444;18.560;2023-02-17T23:18:14;99451.56;;;8.51;62.10
28797;BME280;24974;54.444;18.560;2023-02-17T23:20:47;99430.75;;;8.50;62.13
28797;BME280;24974;54.444;18.560;2023-02-17T23:23:19;99454.84;;;8.74;60.48
28797;BME280;24974;54.444;18.560;2023-02-17T23:25:52;99445.44;;;9.01;60.17
28797;BME280;24974;54.444;18.560;2023-02-17T23:28:24;99435.31;;;9.22;60.12
28797;BME280;24974;54.444;18.560;2023-02-17T23:30:55;99483.97;;;8.95;59.60
28797;BME280;24974;54.444;18.560;2023-02-17T23:33:26;99481.22;;;8.95;60.62
28797;BME280;24974;54.444;18.560;2023-02-17T23:35:57;99448.38;;;9.25;60.07
28797;BME280;24974;54.444;18.560;2023-02-17T23:38:28;99442.31;;;9.11;60.21
28797;BME280;24974;54.444;18.560;2023-02-17T23:40:59;99458.47;;;9.04;60.01
28797;BME280;24974;54.444;18.560;2023-02-17T23:43:30;99499.97;;;8.85;60.52
28797;BME280;24974;54.444;18.560;2023-02-17T23:46:01;99449.63;;;9.28;59.86
28797;BME280;24974;54.444;18.560;2023-02-17T23:48:32;99478.16;;;8.97;59.30
28797;BME280;24974;54.444;18.560;2023-02-17T23:51:03;99425.53;;;9.12;59.39
28797;BME280;24974;54.444;18.560;2023-02-17T23:53:35;99457.63;;;8.65;60.17
28797;BME280;24974;54.444;18.560;2023-02-17T23:59:11;99415.63;;;8.99;59.02
